sensor_id;sensor_type;location;lat;lon;timestamp;P1;durP1;ratioP1;P2;durP2;ratioP2
23169;SDS011;11753;43.144;24.714;2023-02-28T00:00:03;17.42;;;12.85;;
23169;SDS011;11753;43.144;24.714;2023-02-28T00:01:14;15.70;;;11.75;;
23169;SDS011;11753;43.144;24.714;2023-02-28T00:02:15;16.23;;;11.35;;
23169;SDS011;11753;43.144;24.714;2023-02-28T00:03:17;17.40;;;11.73;;
23169;SDS011;11753;43.144;24.714;2023-02-28T00:04:18;16.67;;;11.75;;
23169;SDS011;11753;43.144;24.714;2023-02-28T00:05:19;16.65;;;11.30;;
23169;SDS011;11753;43.144;24.714;2023-02-28T00:06:23;16.75;;;10.68;;
23169;SDS011;11753;43.144;24.714;2023-02-28T00:07:24;14.55;;;10.48;;
23169;SDS011;11753;43.144;24.714;2023-02-28T00:08:24;14.82;;;10.68;;
23169;SDS011;11753;43.144;24.714;2023-02-28T00:09:25;14.88;;;10.25;;
23169;SDS011;11753;43.144;24.714;2023-02-28T00:10:27;14.80;;;9.98;;
23169;SDS011;11753;43.144;24.714;2023-02-28T00:11:30;14.73;;;9.52;;
23169;SDS011;11753;43.144;24.714;2023-02-28T00:12:31;14.88;;;10.43;;
23169;SDS011;11753;43.144;24.714;2023-02-28T00:13:33;13.18;;;9.80;;
23169;SDS011;11753;43.144;24.714;2023-02-28T00:14:37;14.63;;;10.15;;
23169;SDS011;11753;43.144;24.714;2023-02-28T00:15:38;14.60;;;10.45;;
23169;SDS011;11753;43.144;24.714;2023-02-28T00:16:39;16.67;;;10.60;;
23169;SDS011;11753;43.144;24.714;2023-02-28T00:17:40;15.38;;;10.20;;
23169;SDS011;11753;43.144;24.714;2023-02-28T00:18:42;13.75;;;10.30;;
23169;SDS011;11753;43.144;24.714;2023-02-28T00:19:43;14.93;;;10.45;;
23169;SDS011;11753;43.144;24.714;2023-02-28T00:20:44;17.40;;;11.90;;
23169;SDS011;11753;43.144;24.714;2023-02-28T00:21:48;20.00;;;12.98;;
23169;SDS011;11753;43.144;24.714;2023-02-28T00:22:50;18.20;;;12.43;;
23169;SDS011;11753;43.144;24.714;2023-02-28T00:23:52;16.65;;;11.98;;
23169;SDS011;11753;43.144;24.714;2023-02-28T00:24:53;21.83;;;13.52;;
23169;SDS011;11753;43.144;24.714;2023-02-28T00:25:56;17.05;;;12.15;;
23169;SDS011;11753;43.144;24.714;2023-02-28T00:26:57;19.27;;;12.27;;
23169;SDS011;11753;43.144;24.714;2023-02-28T00:27:58;18.13;;;12.52;;
23169;SDS011;11753;43.144;24.714;2023-02-28T00:28:59;18.10;;;13.25;;
23169;SDS011;11753;43.144;24.714;2023-02-28T00:30:00;18.05;;;12.05;;
23169;SDS011;11753;43.144;24.714;2023-02-28T00:31:01;17.90;;;12.00;;
23169;SDS011;11753;43.144;24.714;2023-02-28T00:32:03;17.15;;;12.05;;
23169;SDS011;11753;43.144;24.714;2023-02-28T00:33:05;17.05;;;12.23;;
23169;SDS011;11753;43.144;24.714;2023-02-28T00:34:06;19.33;;;13.18;;
23169;SDS011;11753;43.144;24.714;2023-02-28T00:35:07;18.55;;;13.07;;
23169;SDS011;11753;43.144;24.714;2023-02-28T00:36:09;20.67;;;12.82;;
23169;SDS011;11753;43.144;24.714;2023-02-28T00:37:11;15.63;;;10.70;;
23169;SDS011;11753;43.144;24.714;2023-02-28T00:38:13;18.45;;;11.75;;
23169;SDS011;11753;43.144;24.714;2023-02-28T00:39:15;15.88;;;11.48;;
23169;SDS011;11753;43.144;24.714;2023-02-28T00:40:16;14.13;;;10.65;;
23169;SDS011;11753;43.144;24.714;2023-02-28T00:41:17;13.93;;;10.25;;
23169;SDS011;11753;43.144;24.714;2023-02-28T00:42:18;15.15;;;10.60;;
23169;SDS011;11753;43.144;24.714;2023-02-28T00:43:19;15.00;;;10.30;;
23169;SDS011;11753;43.144;24.714;2023-02-28T00:44:20;14.75;;;10.15;;
23169;SDS011;11753;43.144;24.714;2023-02-28T00:45:21;17.15;;;11.15;;
23169;SDS011;11753;43.144;24.714;2023-02-28T00:46:22;14.55;;;10.05;;
23169;SDS011;11753;43.144;24.714;2023-02-28T00:47:23;15.88;;;10.25;;
23169;SDS011;11753;43.144;24.714;2023-02-28T00:48:24;15.93;;;10.98;;
23169;SDS011;11753;43.144;24.714;2023-02-28T00:49:26;14.95;;;10.85;;
23169;SDS011;11753;43.144;24.714;2023-02-28T00:50:27;15.45;;;11.27;;
23169;SDS011;11753;43.144;24.714;2023-02-28T00:51:28;17.80;;;12.23;;
23169;SDS011;11753;43.144;24.714;2023-02-28T00:52:32;15.98;;;11.20;;
23169;SDS011;11753;43.144;24.714;2023-02-28T00:53:33;15.02;;;11.88;;
23169;SDS011;11753;43.144;24.714;2023-02-28T00:54:34;16.23;;;11.60;;
23169;SDS011;11753;43.144;24.714;2023-02-28T00:55:35;18.73;;;12.02;;
23169;SDS011;11753;43.144;24.714;2023-02-28T00:56:37;21.77;;;15.23;;
23169;SDS011;11753;43.144;24.714;2023-02-28T00:57:39;19.52;;;14.00;;
23169;SDS011;11753;43.144;24.714;2023-02-28T00:58:41;21.48;;;14.75;;
23169;SDS011;11753;43.144;24.714;2023-02-28T00:59:41;19.27;;;14.15;;
23169;SDS011;11753;43.144;24.714;2023-02-28T01:00:42;18.30;;;13.52;;
23169;SDS011;11753;43.144;24.714;2023-02-28T01:01:43;19.33;;;13.20;;
23169;SDS011;11753;43.144;24.714;2023-02-28T01:02:45;22.48;;;14.02;;
23169;SDS011;11753;43.144;24.714;2023-02-28T01:03:46;18.83;;;13.50;;
23169;SDS011;11753;43.144;24.714;2023-02-28T01:04:47;18.75;;;13.90;;
23169;SDS011;11753;43.144;24.714;2023-02-28T01:05:49;17.52;;;13.07;;
23169;SDS011;11753;43.144;24.714;2023-02-28T01:06:50;17.15;;;13.18;;
23169;SDS011;11753;43.144;24.714;2023-02-28T01:07:51;19.55;;;13.48;;
23169;SDS011;11753;43.144;24.714;2023-02-28T01:08:52;21.67;;;13.38;;
23169;SDS011;11753;43.144;24.714;2023-02-28T01:09:53;19.65;;;13.85;;
23169;SDS011;11753;43.144;24.714;2023-02-28T01:10:54;16.52;;;12.20;;
23169;SDS011;11753;43.144;24.714;2023-02-28T01:11:55;21.05;;;13.65;;
23169;SDS011;11753;43.144;24.714;2023-02-28T01:12:56;17.55;;;12.80;;
23169;SDS011;11753;43.144;24.714;2023-02-28T01:13:58;16.55;;;12.07;;
23169;SDS011;11753;43.144;24.714;2023-02-28T01:14:59;16.30;;;12.10;;
23169;SDS011;11753;43.144;24.714;2023-02-28T01:16:00;17.35;;;11.95;;
23169;SDS011;11753;43.144;24.714;2023-02-28T01:17:01;18.42;;;11.63;;
23169;SDS011;11753;43.144;24.714;2023-02-28T01:18:02;15.55;;;11.38;;
23169;SDS011;11753;43.144;24.714;2023-02-28T01:19:03;15.07;;;10.48;;
23169;SDS011;11753;43.144;24.714;2023-02-28T01:20:05;15.63;;;10.75;;
23169;SDS011;11753;43.144;24.714;2023-02-28T01:21:08;16.50;;;11.63;;
23169;SDS011;11753;43.144;24.714;2023-02-28T01:22:13;14.73;;;10.75;;
23169;SDS011;11753;43.144;24.714;2023-02-28T01:23:14;14.23;;;9.95;;
23169;SDS011;11753;43.144;24.714;2023-02-28T01:24:15;13.13;;;9.77;;
23169;SDS011;11753;43.144;24.714;2023-02-28T01:25:16;14.27;;;10.68;;
23169;SDS011;11753;43.144;24.714;2023-02-28T01:26:17;16.38;;;11.15;;
23169;SDS011;11753;43.144;24.714;2023-02-28T01:27:22;13.23;;;9.77;;
23169;SDS011;11753;43.144;24.714;2023-02-28T01:28:23;13.48;;;10.13;;
23169;SDS011;11753;43.144;24.714;2023-02-28T01:29:24;12.18;;;9.02;;
23169;SDS011;11753;43.144;24.714;2023-02-28T01:30:25;11.80;;;9.00;;
23169;SDS011;11753;43.144;24.714;2023-02-28T01:31:26;12.02;;;8.80;;
23169;SDS011;11753;43.144;24.714;2023-02-28T01:32:27;15.07;;;10.45;;
23169;SDS011;11753;43.144;24.714;2023-02-28T01:33:28;14.32;;;9.98;;
23169;SDS011;11753;43.144;24.714;2023-02-28T01:34:28;12.13;;;9.07;;
23169;SDS011;11753;43.144;24.714;2023-02-28T01:35:31;13.90;;;10.02;;
23169;SDS011;11753;43.144;24.714;2023-02-28T01:36:33;12.93;;;9.43;;
23169;SDS011;11753;43.144;24.714;2023-02-28T01:37:34;14.10;;;10.20;;
23169;SDS011;11753;43.144;24.714;2023-02-28T01:38:34;15.18;;;9.77;;
23169;SDS011;11753;43.144;24.714;2023-02-28T01:39:35;16.00;;;10.70;;
23169;SDS011;11753;43.144;24.714;2023-02-28T01:40:36;16.70;;;10.77;;
23169;SDS011;11753;43.144;24.714;2023-02-28T01:41:37;11.90;;;9.32;;
23169;SDS011;11753;43.144;24.714;2023-02-28T01:42:37;14.57;;;9.73;;
23169;SDS011;11753;43.144;24.714;2023-02-28T01:46:16;13.75;;;10.10;;
23169;SDS011;11753;43.144;24.714;2023-02-28T01:47:17;13.10;;;9.57;;
23169;SDS011;11753;43.144;24.714;2023-02-28T01:48:18;13.48;;;9.52;;
23169;SDS011;11753;43.144;24.714;2023-02-28T01:49:21;15.30;;;9.75;;
23169;SDS011;11753;43.144;24.714;2023-02-28T01:50:23;14.88;;;10.63;;
23169;SDS011;11753;43.144;24.714;2023-02-28T01:51:29;13.68;;;10.15;;
23169;SDS011;11753;43.144;24.714;2023-02-28T01:52:35;14.75;;;11.13;;
23169;SDS011;11753;43.144;24.714;2023-02-28T01:53:37;14.93;;;9.88;;
23169;SDS011;11753;43.144;24.714;2023-02-28T01:54:45;15.07;;;10.95;;
23169;SDS011;11753;43.144;24.714;2023-02-28T01:55:51;14.77;;;10.15;;
23169;SDS011;11753;43.144;24.714;2023-02-28T01:57:03;16.33;;;11.77;;
23169;SDS011;11753;43.144;24.714;2023-02-28T01:58:07;14.43;;;10.48;;
23169;SDS011;11753;43.144;24.714;2023-02-28T01:59:09;14.18;;;10.10;;
23169;SDS011;11753;43.144;24.714;2023-02-28T02:00:16;15.68;;;10.10;;
23169;SDS011;11753;43.144;24.714;2023-02-28T02:01:21;13.25;;;9.48;;
23169;SDS011;11753;43.144;24.714;2023-02-28T02:02:24;18.40;;;12.48;;
23169;SDS011;11753;43.144;24.714;2023-02-28T02:03:26;28.27;;;16.30;;
23169;SDS011;11753;43.144;24.714;2023-02-28T02:04:27;24.35;;;17.00;;
23169;SDS011;11753;43.144;24.714;2023-02-28T02:05:36;23.05;;;15.13;;
23169;SDS011;11753;43.144;24.714;2023-02-28T02:06:40;24.88;;;16.10;;
23169;SDS011;11753;43.144;24.714;2023-02-28T02:07:45;28.02;;;18.08;;
23169;SDS011;11753;43.144;24.714;2023-02-28T02:08:49;27.42;;;17.40;;
23169;SDS011;11753;43.144;24.714;2023-02-28T02:09:50;25.92;;;16.60;;
23169;SDS011;11753;43.144;24.714;2023-02-28T02:10:59;27.73;;;16.70;;
23169;SDS011;11753;43.144;24.714;2023-02-28T02:12:20;24.77;;;15.52;;
23169;SDS011;11753;43.144;24.714;2023-02-28T02:15:41;16.45;;;12.35;;
23169;SDS011;11753;43.144;24.714;2023-02-28T02:16:58;19.40;;;12.50;;
23169;SDS011;11753;43.144;24.714;2023-02-28T02:20:51;18.20;;;12.68;;
23169;SDS011;11753;43.144;24.714;2023-02-28T02:29:59;15.60;;;11.00;;
23169;SDS011;11753;43.144;24.714;2023-02-28T02:31:24;17.08;;;11.13;;
23169;SDS011;11753;43.144;24.714;2023-02-28T02:38:31;16.77;;;12.50;;
23169;SDS011;11753;43.144;24.714;2023-02-28T02:42:05;16.38;;;11.88;;
23169;SDS011;11753;43.144;24.714;2023-02-28T02:43:17;18.92;;;12.82;;
23169;SDS011;11753;43.144;24.714;2023-02-28T02:45:38;20.55;;;14.45;;
23169;SDS011;11753;43.144;24.714;2023-02-28T02:46:44;18.25;;;13.82;;
23169;SDS011;11753;43.144;24.714;2023-02-28T02:47:47;19.75;;;13.77;;
23169;SDS011;11753;43.144;24.714;2023-02-28T02:48:50;19.38;;;13.43;;
23169;SDS011;11753;43.144;24.714;2023-02-28T02:49:55;17.90;;;12.93;;
23169;SDS011;11753;43.144;24.714;2023-02-28T02:51:01;18.73;;;13.57;;
23169;SDS011;11753;43.144;24.714;2023-02-28T02:52:12;18.77;;;13.00;;
23169;SDS011;11753;43.144;24.714;2023-02-28T02:53:18;17.77;;;12.85;;
23169;SDS011;11753;43.144;24.714;2023-02-28T02:54:25;19.98;;;13.80;;
23169;SDS011;11753;43.144;24.714;2023-02-28T02:55:29;21.35;;;13.55;;
23169;SDS011;11753;43.144;24.714;2023-02-28T02:56:34;19.40;;;14.27;;
23169;SDS011;11753;43.144;24.714;2023-02-28T02:57:45;22.45;;;14.35;;
23169;SDS011;11753;43.144;24.714;2023-02-28T02:58:49;19.88;;;14.00;;
23169;SDS011;11753;43.144;24.714;2023-02-28T02:59:54;21.63;;;15.10;;
23169;SDS011;11753;43.144;24.714;2023-02-28T03:00:58;20.80;;;15.07;;
23169;SDS011;11753;43.144;24.714;2023-02-28T03:02:03;18.98;;;13.77;;
23169;SDS011;11753;43.144;24.714;2023-02-28T03:03:07;21.35;;;14.75;;
23169;SDS011;11753;43.144;24.714;2023-02-28T03:04:14;18.38;;;13.10;;
23169;SDS011;11753;43.144;24.714;2023-02-28T03:05:34;19.83;;;14.25;;
23169;SDS011;11753;43.144;24.714;2023-02-28T03:06:42;18.52;;;13.70;;
23169;SDS011;11753;43.144;24.714;2023-02-28T03:07:43;18.30;;;13.35;;
23169;SDS011;11753;43.144;24.714;2023-02-28T03:08:44;19.13;;;14.20;;
23169;SDS011;11753;43.144;24.714;2023-02-28T03:09:55;20.52;;;14.68;;
23169;SDS011;11753;43.144;24.714;2023-02-28T03:11:02;18.88;;;13.93;;
23169;SDS011;11753;43.144;24.714;2023-02-28T03:12:04;23.10;;;14.52;;
23169;SDS011;11753;43.144;24.714;2023-02-28T03:13:55;24.20;;;15.80;;
23169;SDS011;11753;43.144;24.714;2023-02-28T03:20:34;23.42;;;15.70;;
23169;SDS011;11753;43.144;24.714;2023-02-28T03:21:50;28.55;;;17.13;;
23169;SDS011;11753;43.144;24.714;2023-02-28T03:23:01;27.52;;;16.98;;
23169;SDS011;11753;43.144;24.714;2023-02-28T03:24:18;26.52;;;16.85;;
23169;SDS011;11753;43.144;24.714;2023-02-28T03:25:35;25.83;;;16.42;;
23169;SDS011;11753;43.144;24.714;2023-02-28T03:27:05;27.23;;;17.45;;
23169;SDS011;11753;43.144;24.714;2023-02-28T03:29:40;24.95;;;15.43;;
23169;SDS011;11753;43.144;24.714;2023-02-28T03:33:51;18.08;;;12.45;;
23169;SDS011;11753;43.144;24.714;2023-02-28T03:36:13;19.30;;;11.93;;
23169;SDS011;11753;43.144;24.714;2023-02-28T03:37:19;24.38;;;13.82;;
23169;SDS011;11753;43.144;24.714;2023-02-28T03:40:07;17.65;;;12.02;;
23169;SDS011;11753;43.144;24.714;2023-02-28T03:41:14;21.38;;;11.98;;
23169;SDS011;11753;43.144;24.714;2023-02-28T03:42:27;18.38;;;10.90;;
23169;SDS011;11753;43.144;24.714;2023-02-28T03:43:31;17.38;;;11.75;;
23169;SDS011;11753;43.144;24.714;2023-02-28T03:44:38;14.10;;;10.38;;
23169;SDS011;11753;43.144;24.714;2023-02-28T03:45:43;14.60;;;10.50;;
23169;SDS011;11753;43.144;24.714;2023-02-28T03:46:53;18.63;;;11.93;;
23169;SDS011;11753;43.144;24.714;2023-02-28T03:48:23;16.83;;;10.57;;
23169;SDS011;11753;43.144;24.714;2023-02-28T03:49:27;14.63;;;10.10;;
23169;SDS011;11753;43.144;24.714;2023-02-28T03:50:57;13.45;;;9.18;;
23169;SDS011;11753;43.144;24.714;2023-02-28T03:52:01;16.05;;;9.55;;
23169;SDS011;11753;43.144;24.714;2023-02-28T03:54:15;15.53;;;9.73;;
23169;SDS011;11753;43.144;24.714;2023-02-28T03:55:18;15.63;;;10.20;;
23169;SDS011;11753;43.144;24.714;2023-02-28T03:56:22;14.55;;;9.45;;
23169;SDS011;11753;43.144;24.714;2023-02-28T03:59:13;13.70;;;9.75;;
23169;SDS011;11753;43.144;24.714;2023-02-28T04:00:30;14.15;;;10.13;;
23169;SDS011;11753;43.144;24.714;2023-02-28T04:01:39;12.30;;;9.35;;
23169;SDS011;11753;43.144;24.714;2023-02-28T04:02:42;14.57;;;9.57;;
23169;SDS011;11753;43.144;24.714;2023-02-28T04:03:43;13.52;;;9.55;;
23169;SDS011;11753;43.144;24.714;2023-02-28T04:04:44;13.88;;;9.95;;
23169;SDS011;11753;43.144;24.714;2023-02-28T04:05:50;11.73;;;8.65;;
23169;SDS011;11753;43.144;24.714;2023-02-28T04:07:00;13.60;;;9.45;;
23169;SDS011;11753;43.144;24.714;2023-02-28T04:08:07;14.52;;;9.93;;
23169;SDS011;11753;43.144;24.714;2023-02-28T04:09:09;12.82;;;8.82;;
23169;SDS011;11753;43.144;24.714;2023-02-28T04:10:12;15.48;;;8.95;;
23169;SDS011;11753;43.144;24.714;2023-02-28T04:11:18;14.00;;;9.10;;
23169;SDS011;11753;43.144;24.714;2023-02-28T04:12:28;12.48;;;8.55;;
23169;SDS011;11753;43.144;24.714;2023-02-28T04:13:29;12.30;;;9.05;;
23169;SDS011;11753;43.144;24.714;2023-02-28T04:14:30;12.82;;;9.57;;
23169;SDS011;11753;43.144;24.714;2023-02-28T04:15:31;14.82;;;9.48;;
23169;SDS011;11753;43.144;24.714;2023-02-28T04:16:32;11.52;;;8.68;;
23169;SDS011;11753;43.144;24.714;2023-02-28T04:17:35;13.10;;;9.02;;
23169;SDS011;11753;43.144;24.714;2023-02-28T04:18:36;14.25;;;9.77;;
23169;SDS011;11753;43.144;24.714;2023-02-28T04:19:38;14.73;;;9.45;;
23169;SDS011;11753;43.144;24.714;2023-02-28T04:20:39;17.30;;;9.98;;
23169;SDS011;11753;43.144;24.714;2023-02-28T04:21:42;15.93;;;10.15;;
23169;SDS011;11753;43.144;24.714;2023-02-28T04:22:44;15.68;;;10.40;;
23169;SDS011;11753;43.144;24.714;2023-02-28T04:23:45;16.60;;;10.35;;
23169;SDS011;11753;43.144;24.714;2023-02-28T04:24:46;16.35;;;9.57;;
23169;SDS011;11753;43.144;24.714;2023-02-28T04:25:47;13.15;;;8.85;;
23169;SDS011;11753;43.144;24.714;2023-02-28T04:26:50;11.57;;;9.15;;
23169;SDS011;11753;43.144;24.714;2023-02-28T04:27:53;12.32;;;8.57;;
23169;SDS011;11753;43.144;24.714;2023-02-28T04:28:54;13.15;;;9.68;;
23169;SDS011;11753;43.144;24.714;2023-02-28T04:29:55;18.13;;;9.75;;
23169;SDS011;11753;43.144;24.714;2023-02-28T04:31:00;12.90;;;9.27;;
23169;SDS011;11753;43.144;24.714;2023-02-28T04:32:03;12.63;;;9.50;;
23169;SDS011;11753;43.144;24.714;2023-02-28T04:33:04;13.32;;;9.90;;
23169;SDS011;11753;43.144;24.714;2023-02-28T04:34:05;10.75;;;8.85;;
23169;SDS011;11753;43.144;24.714;2023-02-28T04:35:07;13.52;;;9.77;;
23169;SDS011;11753;43.144;24.714;2023-02-28T04:36:08;10.90;;;8.45;;
23169;SDS011;11753;43.144;24.714;2023-02-28T04:37:09;10.88;;;8.18;;
23169;SDS011;11753;43.144;24.714;2023-02-28T04:38:10;12.35;;;8.98;;
23169;SDS011;11753;43.144;24.714;2023-02-28T04:39:11;11.60;;;9.15;;
23169;SDS011;11753;43.144;24.714;2023-02-28T04:40:12;14.30;;;9.15;;
23169;SDS011;11753;43.144;24.714;2023-02-28T04:41:16;13.07;;;8.55;;
23169;SDS011;11753;43.144;24.714;2023-02-28T04:42:18;12.65;;;8.98;;
23169;SDS011;11753;43.144;24.714;2023-02-28T04:43:19;12.35;;;8.27;;
23169;SDS011;11753;43.144;24.714;2023-02-28T04:44:20;11.52;;;8.52;;
23169;SDS011;11753;43.144;24.714;2023-02-28T04:45:21;10.75;;;8.20;;
23169;SDS011;11753;43.144;24.714;2023-02-28T04:46:22;12.38;;;8.30;;
23169;SDS011;11753;43.144;24.714;2023-02-28T04:47:23;11.38;;;9.00;;
23169;SDS011;11753;43.144;24.714;2023-02-28T04:48:26;11.82;;;8.82;;
23169;SDS011;11753;43.144;24.714;2023-02-28T04:49:28;13.60;;;10.02;;
23169;SDS011;11753;43.144;24.714;2023-02-28T04:50:29;11.68;;;8.70;;
23169;SDS011;11753;43.144;24.714;2023-02-28T04:51:30;11.98;;;8.93;;
23169;SDS011;11753;43.144;24.714;2023-02-28T04:52:31;12.00;;;8.35;;
23169;SDS011;11753;43.144;24.714;2023-02-28T04:53:32;12.30;;;8.82;;
23169;SDS011;11753;43.144;24.714;2023-02-28T04:54:33;11.45;;;8.48;;
23169;SDS011;11753;43.144;24.714;2023-02-28T04:55:39;13.00;;;10.10;;
23169;SDS011;11753;43.144;24.714;2023-02-28T04:56:41;14.60;;;9.20;;
23169;SDS011;11753;43.144;24.714;2023-02-28T04:57:42;13.30;;;9.48;;
23169;SDS011;11753;43.144;24.714;2023-02-28T04:58:43;11.43;;;9.32;;
23169;SDS011;11753;43.144;24.714;2023-02-28T04:59:45;11.68;;;9.15;;
23169;SDS011;11753;43.144;24.714;2023-02-28T05:00:49;11.77;;;8.73;;
23169;SDS011;11753;43.144;24.714;2023-02-28T05:01:50;13.60;;;9.85;;
23169;SDS011;11753;43.144;24.714;2023-02-28T05:02:51;10.90;;;8.23;;
23169;SDS011;11753;43.144;24.714;2023-02-28T05:03:53;16.50;;;12.63;;
23169;SDS011;11753;43.144;24.714;2023-02-28T05:04:55;12.70;;;9.48;;
23169;SDS011;11753;43.144;24.714;2023-02-28T05:05:56;13.25;;;9.45;;
23169;SDS011;11753;43.144;24.714;2023-02-28T05:06:57;12.07;;;8.63;;
23169;SDS011;11753;43.144;24.714;2023-02-28T05:07:58;13.18;;;9.63;;
23169;SDS011;11753;43.144;24.714;2023-02-28T05:09:02;10.63;;;8.50;;
23169;SDS011;11753;43.144;24.714;2023-02-28T05:10:03;13.40;;;10.25;;
23169;SDS011;11753;43.144;24.714;2023-02-28T05:11:06;13.73;;;9.77;;
23169;SDS011;11753;43.144;24.714;2023-02-28T05:12:12;10.57;;;8.35;;
23169;SDS011;11753;43.144;24.714;2023-02-28T05:13:13;11.40;;;9.20;;
23169;SDS011;11753;43.144;24.714;2023-02-28T05:14:14;12.27;;;8.95;;
23169;SDS011;11753;43.144;24.714;2023-02-28T05:15:15;12.60;;;10.52;;
23169;SDS011;11753;43.144;24.714;2023-02-28T05:16:17;13.77;;;10.38;;
23169;SDS011;11753;43.144;24.714;2023-02-28T05:17:21;11.93;;;9.15;;
23169;SDS011;11753;43.144;24.714;2023-02-28T05:18:22;11.50;;;9.15;;
23169;SDS011;11753;43.144;24.714;2023-02-28T05:19:23;12.13;;;8.77;;
23169;SDS011;11753;43.144;24.714;2023-02-28T05:20:24;12.90;;;9.38;;
23169;SDS011;11753;43.144;24.714;2023-02-28T05:21:29;19.23;;;15.75;;
23169;SDS011;11753;43.144;24.714;2023-02-28T05:22:32;16.08;;;11.00;;
23169;SDS011;11753;43.144;24.714;2023-02-28T05:23:33;14.38;;;10.70;;
23169;SDS011;11753;43.144;24.714;2023-02-28T05:24:34;12.88;;;9.75;;
23169;SDS011;11753;43.144;24.714;2023-02-28T05:25:35;12.85;;;10.77;;
23169;SDS011;11753;43.144;24.714;2023-02-28T05:26:37;15.35;;;10.75;;
23169;SDS011;11753;43.144;24.714;2023-02-28T05:27:40;15.57;;;12.05;;
23169;SDS011;11753;43.144;24.714;2023-02-28T05:28:41;12.50;;;10.43;;
23169;SDS011;11753;43.144;24.714;2023-02-28T05:29:42;12.88;;;9.73;;
23169;SDS011;11753;43.144;24.714;2023-02-28T05:30:43;13.77;;;10.27;;
23169;SDS011;11753;43.144;24.714;2023-02-28T05:31:44;12.30;;;9.38;;
23169;SDS011;11753;43.144;24.714;2023-02-28T05:32:49;13.07;;;10.75;;
23169;SDS011;11753;43.144;24.714;2023-02-28T05:33:51;14.18;;;11.05;;
23169;SDS011;11753;43.144;24.714;2023-02-28T05:34:52;11.75;;;9.60;;
23169;SDS011;11753;43.144;24.714;2023-02-28T05:35:53;17.77;;;13.50;;
23169;SDS011;11753;43.144;24.714;2023-02-28T05:36:54;21.65;;;13.57;;
23169;SDS011;11753;43.144;24.714;2023-02-28T05:37:55;18.33;;;12.95;;
23169;SDS011;11753;43.144;24.714;2023-02-28T05:38:56;19.38;;;15.10;;
23169;SDS011;11753;43.144;24.714;2023-02-28T05:39:57;14.38;;;10.43;;
23169;SDS011;11753;43.144;24.714;2023-02-28T05:40:58;14.10;;;11.52;;
23169;SDS011;11753;43.144;24.714;2023-02-28T05:41:59;14.48;;;10.68;;
23169;SDS011;11753;43.144;24.714;2023-02-28T05:43:00;15.20;;;11.80;;
23169;SDS011;11753;43.144;24.714;2023-02-28T05:44:01;17.40;;;11.57;;
23169;SDS011;11753;43.144;24.714;2023-02-28T05:45:02;15.55;;;12.25;;
23169;SDS011;11753;43.144;24.714;2023-02-28T05:46:04;16.80;;;12.05;;
23169;SDS011;11753;43.144;24.714;2023-02-28T05:47:06;15.70;;;11.52;;
23169;SDS011;11753;43.144;24.714;2023-02-28T05:48:08;16.50;;;12.10;;
23169;SDS011;11753;43.144;24.714;2023-02-28T05:49:09;16.85;;;11.85;;
23169;SDS011;11753;43.144;24.714;2023-02-28T05:50:10;15.02;;;11.13;;
23169;SDS011;11753;43.144;24.714;2023-02-28T05:51:11;18.10;;;11.90;;
23169;SDS011;11753;43.144;24.714;2023-02-28T05:52:11;13.75;;;11.10;;
23169;SDS011;11753;43.144;24.714;2023-02-28T05:53:12;17.58;;;12.70;;
23169;SDS011;11753;43.144;24.714;2023-02-28T05:54:12;15.52;;;11.73;;
23169;SDS011;11753;43.144;24.714;2023-02-28T05:55:13;16.20;;;13.00;;
23169;SDS011;11753;43.144;24.714;2023-02-28T05:56:13;17.45;;;13.20;;
23169;SDS011;11753;43.144;24.714;2023-02-28T05:57:15;76.20;;;68.13;;
23169;SDS011;11753;43.144;24.714;2023-02-28T05:58:16;78.97;;;70.45;;
23169;SDS011;11753;43.144;24.714;2023-02-28T05:59:17;22.90;;;18.88;;
23169;SDS011;11753;43.144;24.714;2023-02-28T06:00:18;17.55;;;13.85;;
23169;SDS011;11753;43.144;24.714;2023-02-28T06:01:20;19.80;;;13.88;;
23169;SDS011;11753;43.144;24.714;2023-02-28T06:02:33;19.73;;;16.08;;
23169;SDS011;11753;43.144;24.714;2023-02-28T06:03:34;22.45;;;15.20;;
23169;SDS011;11753;43.144;24.714;2023-02-28T06:04:34;19.02;;;14.48;;
23169;SDS011;11753;43.144;24.714;2023-02-28T06:05:35;18.73;;;13.80;;
23169;SDS011;11753;43.144;24.714;2023-02-28T06:06:35;18.88;;;14.30;;
23169;SDS011;11753;43.144;24.714;2023-02-28T06:07:37;16.33;;;12.75;;
23169;SDS011;11753;43.144;24.714;2023-02-28T06:08:37;18.88;;;13.98;;
23169;SDS011;11753;43.144;24.714;2023-02-28T06:09:39;15.85;;;13.43;;
23169;SDS011;11753;43.144;24.714;2023-02-28T06:10:40;16.00;;;12.27;;
23169;SDS011;11753;43.144;24.714;2023-02-28T06:11:41;19.88;;;14.55;;
23169;SDS011;11753;43.144;24.714;2023-02-28T06:12:42;18.08;;;13.07;;
23169;SDS011;11753;43.144;24.714;2023-02-28T06:13:46;19.02;;;15.18;;
23169;SDS011;11753;43.144;24.714;2023-02-28T06:14:49;19.88;;;15.18;;
23169;SDS011;11753;43.144;24.714;2023-02-28T06:15:50;18.92;;;14.43;;
23169;SDS011;11753;43.144;24.714;2023-02-28T06:16:51;17.95;;;14.90;;
23169;SDS011;11753;43.144;24.714;2023-02-28T06:17:52;17.65;;;14.70;;
23169;SDS011;11753;43.144;24.714;2023-02-28T06:18:52;18.95;;;14.98;;
23169;SDS011;11753;43.144;24.714;2023-02-28T06:19:56;18.52;;;14.65;;
23169;SDS011;11753;43.144;24.714;2023-02-28T06:20:57;21.42;;;16.90;;
23169;SDS011;11753;43.144;24.714;2023-02-28T06:21:58;19.55;;;15.82;;
23169;SDS011;11753;43.144;24.714;2023-02-28T06:23:00;19.33;;;14.63;;
23169;SDS011;11753;43.144;24.714;2023-02-28T06:24:01;20.77;;;16.40;;
23169;SDS011;11753;43.144;24.714;2023-02-28T06:25:05;21.13;;;15.43;;
23169;SDS011;11753;43.144;24.714;2023-02-28T06:26:07;19.08;;;16.02;;
23169;SDS011;11753;43.144;24.714;2023-02-28T06:27:10;18.88;;;14.82;;
23169;SDS011;11753;43.144;24.714;2023-02-28T06:28:11;39.42;;;27.20;;
23169;SDS011;11753;43.144;24.714;2023-02-28T06:29:12;18.60;;;14.85;;
23169;SDS011;11753;43.144;24.714;2023-02-28T06:30:17;19.05;;;14.57;;
23169;SDS011;11753;43.144;24.714;2023-02-28T06:31:18;19.15;;;15.13;;
23169;SDS011;11753;43.144;24.714;2023-02-28T06:32:19;18.15;;;14.73;;
23169;SDS011;11753;43.144;24.714;2023-02-28T06:33:20;16.90;;;14.13;;
23169;SDS011;11753;43.144;24.714;2023-02-28T06:34:21;16.33;;;13.27;;
23169;SDS011;11753;43.144;24.714;2023-02-28T06:35:22;19.27;;;15.23;;
23169;SDS011;11753;43.144;24.714;2023-02-28T06:36:23;18.80;;;14.50;;
23169;SDS011;11753;43.144;24.714;2023-02-28T06:37:24;18.17;;;13.45;;
23169;SDS011;11753;43.144;24.714;2023-02-28T06:38:26;19.85;;;15.75;;
23169;SDS011;11753;43.144;24.714;2023-02-28T06:39:28;18.63;;;14.90;;
23169;SDS011;11753;43.144;24.714;2023-02-28T06:40:29;19.80;;;14.68;;
23169;SDS011;11753;43.144;24.714;2023-02-28T06:41:34;18.30;;;14.88;;
23169;SDS011;11753;43.144;24.714;2023-02-28T06:42:38;19.88;;;14.98;;
23169;SDS011;11753;43.144;24.714;2023-02-28T06:43:41;25.67;;;18.95;;
23169;SDS011;11753;43.144;24.714;2023-02-28T06:44:42;20.95;;;16.17;;
23169;SDS011;11753;43.144;24.714;2023-02-28T06:45:44;20.60;;;15.50;;
23169;SDS011;11753;43.144;24.714;2023-02-28T06:46:48;18.40;;;15.20;;
23169;SDS011;11753;43.144;24.714;2023-02-28T06:47:50;24.75;;;18.65;;